ADDS METAR Data INFO
IDs: Format: Raw Decoded Include TAF

Data at: 1358 UTC 17 Dec 2017

KBGE 171355Z AUTO 13003KT 10SM CLR 11/08 A3024 RMK AO2
KBGE 171335Z AUTO 00000KT 10SM CLR 10/08 A3025 RMK AO2
KBGE 171315Z AUTO 12004KT 10SM CLR 08/07 A3024 RMK AO2
KBGE 171255Z AUTO 11003KT 10SM CLR 07/06 A3025 RMK AO2
KBGE 171235Z AUTO 10004KT 10SM CLR 06/06 A3025 RMK AO2
KBGE 171215Z AUTO 09003KT 10SM CLR 06/06 A3025 RMK AO2
KBGE 171155Z AUTO 00000KT 10SM CLR 07/05 A3027 RMK AO2
KBGE 171135Z AUTO 00000KT 10SM CLR 07/05 A3025 RMK AO2
KBGE 171115Z AUTO 08003KT 10SM CLR 06/05 A3024 RMK AO2
KBGE 171055Z AUTO 06003KT 10SM CLR 06/05 A3023 RMK AO2
KBGE 171035Z AUTO 00000KT 10SM CLR 06/05 A3022 RMK AO2
KBGE 171015Z AUTO 08003KT 10SM CLR 06/05 A3022 RMK AO2
KBGE 170955Z AUTO 00000KT 10SM CLR 06/05 A3022 RMK AO2
KBGE 170935Z AUTO 00000KT 10SM CLR 07/04 A3023 RMK AO2
KBGE 170915Z AUTO 09003KT 10SM CLR 06/05 A3021 RMK AO2
KBGE 170855Z AUTO 09005KT 10SM CLR 06/05 A3021 RMK AO2
KBGE 170835Z AUTO 07007KT 10SM CLR 05/05 A3021 RMK AO2
KBGE 170815Z AUTO 00000KT 10SM CLR 05/05 A3024 RMK AO2
KBGE 170755Z AUTO 00000KT 10SM CLR 06/05 A3025 RMK AO2
KBGE 170735Z AUTO 00000KT 10SM CLR 06/05 A3026 RMK AO2
KBGE 170715Z AUTO 07003KT 10SM CLR 06/05 A3025 RMK AO2
KBGE 170655Z AUTO 00000KT 10SM CLR 06/05 A3026 RMK AO2
KBGE 170635Z AUTO 09003KT 10SM CLR 06/05 A3027 RMK AO2
KBGE 170615Z AUTO 00000KT 10SM CLR 06/05 A3027 RMK AO2
KBGE 170555Z AUTO 00000KT 10SM CLR 06/05 A3028 RMK AO2
KBGE 170535Z AUTO 00000KT 10SM CLR 06/05 A3028 RMK AO2
KBGE 170515Z AUTO 00000KT 10SM CLR 06/05 A3029 RMK AO2
KBGE 170455Z AUTO 00000KT 10SM CLR 06/05 A3030 RMK AO2
KBGE 170435Z AUTO 00000KT 10SM CLR 07/05 A3030 RMK AO2
KBGE 170415Z AUTO 00000KT 10SM CLR 07/05 A3029 RMK AO2
KBGE 170355Z AUTO 00000KT 10SM CLR 07/05 A3029 RMK AO2
KBGE 170335Z AUTO 00000KT 10SM CLR 07/06 A3028 RMK AO2
KBGE 170315Z AUTO 00000KT 10SM CLR 07/05 A3028 RMK AO2
KBGE 170255Z AUTO 00000KT 10SM CLR 07/05 A3028 RMK AO2
KBGE 170235Z AUTO 00000KT 10SM CLR 08/05 A3028 RMK AO2
KBGE 170215Z AUTO 00000KT 10SM CLR 08/05 A3028 RMK AO2
KBGE 170155Z AUTO 00000KT 10SM CLR 08/05 A3028 RMK AO2
KBGE 170135Z AUTO 00000KT 10SM CLR 08/05 A3028 RMK AO2
KBGE 170115Z AUTO 00000KT 10SM CLR 08/05 A3028 RMK AO2
KBGE 170055Z AUTO 00000KT 10SM CLR 08/04 A3028 RMK AO2
KBGE 170035Z AUTO 00000KT 10SM CLR 10/04 A3028 RMK AO2
KBGE 170015Z AUTO 00000KT 10SM CLR 10/04 A3028 RMK AO2
KBGE 162355Z AUTO 00000KT 10SM CLR 11/04 A3028 RMK AO2
KBGE 162335Z AUTO 00000KT 10SM CLR 11/04 A3027 RMK AO2
KBGE 162315Z AUTO 00000KT 10SM CLR 11/04 A3026 RMK AO2
KBGE 162255Z AUTO 00000KT 10SM CLR 12/03 A3026 RMK AO2
KBGE 162235Z AUTO 00000KT 10SM CLR 13/02 A3025 RMK AO2
KBGE 162215Z AUTO 00000KT 10SM CLR 15/02 A3025 RMK AO2
KBGE 162155Z AUTO 00000KT 10SM CLR 16/02 A3025 RMK AO2
KBGE 162135Z AUTO 08003KT 10SM CLR 16/01 A3024 RMK AO2
KBGE 162115Z AUTO 07003KT 10SM CLR 16/01 A3024 RMK AO2
KBGE 162055Z AUTO 08006KT 10SM CLR 17/01 A3024 RMK AO2
KBGE 162035Z AUTO 06005KT 10SM CLR 17/02 A3024 RMK AO2
KBGE 162015Z AUTO 07005KT 10SM CLR 17/01 A3024 RMK AO2
KBGE 161955Z AUTO 05006KT 10SM CLR 16/01 A3025 RMK AO2
KBGE 161935Z AUTO 07005KT 10SM CLR 16/01 A3025 RMK AO2
KBGE 161915Z AUTO 08004KT 10SM CLR 16/01 A3025 RMK AO2
KBGE 161855Z AUTO 05007KT 10SM CLR 16/01 A3026 RMK AO2
KBGE 161835Z AUTO 07004KT 10SM CLR 15/01 A3027 RMK AO2
KBGE 161815Z AUTO 05003KT 10SM CLR 15/01 A3028 RMK AO2
KBGE 161755Z AUTO 09004KT 10SM CLR 15/01 A3028 RMK AO2
KBGE 161735Z AUTO 09003KT 10SM CLR 13/01 A3030 RMK AO2
KBGE 161715Z AUTO 09006KT 10SM CLR 13/01 A3031 RMK AO2
KBGE 161655Z AUTO 00000KT 10SM CLR 12/01 A3033 RMK AO2
KBGE 161635Z AUTO 07006KT 10SM CLR 12/01 A3033 RMK AO2
KBGE 161615Z AUTO 06004KT 10SM CLR 10/01 A3034 RMK AO2
KBGE 161555Z AUTO 06005KT 10SM CLR 10/01 A3034 RMK AO2
KBGE 161535Z AUTO 05006KT 10SM CLR 09/00 A3034 RMK AO2
KBGE 161515Z AUTO 08005KT 10SM CLR 08/00 A3034 RMK AO2
KBGE 161455Z AUTO 06005KT 10SM CLR 07/00 A3034 RMK AO2
KBGE 161435Z AUTO 06008KT 10SM CLR 07/00 A3033 RMK AO2
KBGE 161415Z AUTO 02006KT 10SM CLR 06/00 A3033 RMK AO2
KBGE 161355Z AUTO 07006KT 10SM CLR 06/00 A3032 RMK AO2
KBGE 161335Z AUTO 04005KT 10SM CLR 05/00 A3032 RMK AO2
KBGE 161315Z AUTO 04003KT 10SM CLR 04/01 A3031 RMK AO2
KBGE 161255Z AUTO 00000KT 10SM CLR 03/01 A3031 RMK AO2
KBGE 161235Z AUTO 00000KT 10SM CLR 03/01 A3030 RMK AO2
KBGE 161215Z AUTO 02003KT 10SM CLR 03/00 A3029 RMK AO2
KBGE 161155Z AUTO 00000KT 10SM CLR 03/00 A3028 RMK AO2
KBGE 161135Z AUTO 00000KT 10SM CLR 03/01 A3028 RMK AO2
KBGE 161115Z AUTO 00000KT 10SM CLR 03/01 A3027 RMK AO2
KBGE 161055Z AUTO 02003KT 10SM CLR 04/01 A3027 RMK AO2
KBGE 161035Z AUTO 00000KT 10SM CLR 04/01 A3027 RMK AO2
KBGE 161015Z AUTO 02003KT 10SM CLR 05/01 A3026 RMK AO2
KBGE 160955Z AUTO 02003KT 10SM CLR 05/01 A3026 RMK AO2
KBGE 160935Z AUTO 03003KT 10SM CLR 05/00 A3026 RMK AO2
KBGE 160915Z AUTO 00000KT 10SM CLR 06/01 A3026 RMK AO2
KBGE 160855Z AUTO 02003KT 10SM CLR 06/01 A3026 RMK AO2
KBGE 160835Z AUTO 01004KT 10SM CLR 06/01 A3026 RMK AO2
KBGE 160815Z AUTO 01005KT 10SM CLR 06/01 A3025 RMK AO2
KBGE 160755Z AUTO 01004KT 10SM CLR 06/01 A3025 RMK AO2
KBGE 160735Z AUTO 36005KT 10SM CLR 07/01 A3025 RMK AO2
KBGE 160715Z AUTO 01005KT 10SM CLR 07/01 A3025 RMK AO2
KBGE 160655Z AUTO 01004KT 10SM CLR 07/01 A3024 RMK AO2
KBGE 160635Z AUTO 36005KT 10SM CLR 07/01 A3024 RMK AO2
KBGE 160615Z AUTO 36003KT 10SM CLR 07/01 A3024 RMK AO2
KBGE 160555Z AUTO 36004KT 10SM CLR 07/01 A3024 RMK AO2
KBGE 160535Z AUTO 36003KT 10SM CLR 07/01 A3024 RMK AO2
KBGE 160515Z AUTO 01005KT 10SM CLR 07/01 A3023 RMK AO2
KBGE 160455Z AUTO 35005KT 10SM CLR 07/01 A3024 RMK AO2
KBGE 160435Z AUTO 35005KT 10SM CLR 07/01 A3024 RMK AO2
KBGE 160415Z AUTO 35005KT 10SM CLR 07/01 A3024 RMK AO2
KBGE 160355Z AUTO 36006KT 10SM CLR 08/01 A3024 RMK AO2
KBGE 160335Z AUTO 35005KT 10SM CLR 08/01 A3023 RMK AO2
KBGE 160315Z AUTO 34008KT 10SM CLR 08/02 A3024 RMK AO2
KBGE 160255Z AUTO 00000KT 10SM CLR 08/02 A3022 RMK AO2
KBGE 160235Z AUTO 32003KT 10SM CLR 08/02 A3022 RMK AO2
KBGE 160215Z AUTO 33003KT 10SM CLR 08/02 A3021 RMK AO2